• Join FlightAware (Why Join?)
  • Login
  • US Flag 
04:21AM EDT


 

Airport Tracker/Info


-or-


 

Live Flight TrackerFlight Track Log ✈ GJS3649 ✈ 08-Jul-2013 ✈ KBDL - KIAD

Flight Track Log - Related Links

Times and Time Zones

All times are in EDT time to prevent confusion due to time zone crossing. See the GJS3649 flight status page for this flight to view local times or setup timezone preferences in your user account.

Time Position Orientation Groundspeed Altitude Reporting Facility
EDT Latitude Longitude Course Direction KTS MPH feet Rate Location/Type
04:18PM 41.9292 -72.7053 171° South 159 183 700  Level Boston Center
04:19PM 41.8644 -72.7133 185° South 164 189 3,700 1,920 Climbing Boston Center
04:20PM 41.8167 -72.6797 152° Southeast 185 213 5,300 2,220 Climbing Boston Center
04:21PM 41.7231 -72.6097 151° Southeast 260 299 8,600 2,340 Climbing Boston Center
04:22PM 41.1313 -72.3906 159° South  Level FlightAware Approximate
04:22PM 41.6500 -72.5539 150° Southeast 290 334 10,500  Level Boston Center
04:23PM 40.9671 -72.3334 171° South  Level FlightAware Approximate
04:23PM 41.5875 -72.4650 133° Southeast 311 358 12,100  Level Boston Center
04:24PM 41.5083 -72.3958 147° Southeast 336 387 13,800 1,860 Climbing Boston Center
04:25PM 41.4147 -72.4153 189° South 318 366 15,900 2,100 Climbing Boston Center
04:26PM 41.3167 -72.4456 193° South 348 400 18,000 1,860 Climbing Boston Center
04:27PM 41.2208 -72.4706 191° South 358 412 19,700 1,680 Climbing Boston Center
04:28PM 41.1311 -72.5228 204° Southwest 358 412 21,400 1,680 Climbing Boston Center
04:29PM 41.0519 -72.6025 217° Southwest 352 405 23,100 1,500 Climbing Boston Center
04:30PM 40.9706 -72.6819 216° Southwest 357 411 24,500 1,260 Climbing Boston Center
04:31PM 40.8911 -72.7614 217° Southwest 363 418 25,700 1,200 Climbing Boston Center
04:32PM 40.8094 -72.8458 218° Southwest 368 423 26,900 1,200 Climbing Boston Center
04:33PM 40.7217 -72.9219 213° Southwest 374 430 28,100 1,200 Climbing Boston Center
04:34PM 40.6422 -73.0064 219° Southwest 379 436 29,300 900 Climbing Boston Center
04:35PM 40.5542 -73.0928 217° Southwest 384 442 30,000 300 Climbing Boston Center
04:36PM 40.4642 -73.1819 217° Southwest 391 450 30,000  Level Boston Center
04:37PM 40.3717 -73.2708 216° Southwest 402 463 30,000  Level Boston Center
04:39PM 40.1903 -73.4597 219° Southwest 445 512 30,000  Level Washington Center
04:40PM 40.1022 -73.5411 215° Southwest 445 512 30,000  Level Washington Center
04:41PM 40.0058 -73.6333 216° Southwest 435 501 30,000  Level Washington Center
04:42PM 39.9094 -73.7278 217° Southwest 435 501 30,000  Level Washington Center
04:43PM 39.8128 -73.8169 215° Southwest 435 501 30,000  Level Washington Center
04:44PM 39.7142 -73.9031 214° Southwest 435 501 30,000 -540 Level Washington Center
04:45PM 39.6131 -73.9833 211° Southwest 435 501 29,000 -960 Descending Washington Center
04:46PM 39.5142 -74.0636 212° Southwest 430 495 28,100 -960 Descending Washington Center
04:47PM 39.4131 -74.1492 213° Southwest 430 495 27,100 -1,380 Descending Washington Center
04:48PM 39.3139 -74.2261 211° Southwest 430 495 25,400 -2,220 Descending Washington Center
04:49PM 39.2253 -74.3028 214° Southwest 416 479 22,800 -2,580 Descending Washington Center
04:50PM 39.1322 -74.3742 211° Southwest 405 466 20,300 -1,860 Descending Washington Center
04:51PM 39.0392 -74.4506 213° Southwest 405 466 19,000 -1,200 Descending Washington Center
04:52PM 38.9544 -74.5267 215° Southwest 398 458 18,000 -1,020 Descending Washington Center
04:53PM 38.9200 -74.6497 250° West 360 414 17,100 -960 Descending Washington Center
04:54PM 38.8939 -74.7836 256° West 368 423 16,100 -1,020 Descending Washington Center
04:55PM 38.8675 -74.9039 254° West 368 423 15,100 -1,020 Descending Washington Center
04:56PM 38.8431 -75.0292 256° West 368 423 14,100 -600 Descending Washington Center
04:57PM 38.8208 -75.1572 257° West 368 423 13,900 -120 Descending Washington Center
04:58PM 38.8067 -75.2933 262° West 361 415 13,900 -180 Level Washington Center
04:59PM 38.7964 -75.4186 264° West 361 415 13,600 -660 Descending Washington Center
05:00PM 38.7883 -75.5492 266° West 361 415 12,600 -900 Descending Washington Center
05:01PM 38.7797 -75.6742 265° West 366 421 11,900 -360 Descending Washington Center
05:02PM 38.7733 -75.7994 266° West 366 421 11,900  Level Washington Center
05:03PM 38.7628 -75.9192 264° West 360 414 12,000  Climbing Washington Center
05:04PM 38.7561 -76.0442 266° West 360 414 11,900 -120 Descending Washington Center
05:05PM 38.8119 -76.1539 303° West 337 388 11,800 -600 Descending Washington Center
05:06PM 38.8803 -76.2503 312° West 343 395 10,700 -960 Descending Washington Center
05:07PM 38.9444 -76.3442 311° West 349 402 10,000 -420 Descending Washington Center
05:08PM 39.0064 -76.4303 313° West 350 403 9,900 -540 Descending Washington Center
05:09PM 39.0558 -76.5031 311° West 307 353 9,000 -600 Descending Washington Center
05:12PM 39.1667 -76.6500 314° West 265 305 8,000 -360 Descending Potomac TRACON
05:13PM 39.1833 -76.7500 282° West 262 302 8,000 -300 Level Potomac TRACON
05:15PM 39.2000 -76.9333 277° West 263 303 7,100 -720 Descending Potomac TRACON
05:16PM 39.2167 -77.0333 282° West 257 296 6,000 -720 Descending Potomac TRACON
05:18PM 39.2167 -77.2167 270° West 256 295 5,000 -360 Descending Potomac TRACON
05:19PM 39.1833 -77.2833 237° Southwest 257 296 5,000 -540 Level Potomac TRACON
05:20PM 39.1667 -77.3833 258° West 253 291 4,000 -900 Descending Potomac TRACON